createdAt,value
2023-02-09T00:00:14.843Z,24.72
2023-02-09T00:02:47.886Z,25.17
2023-02-09T00:05:19.356Z,25.76
2023-02-09T00:07:50.578Z,24.53
2023-02-09T00:10:21.638Z,24.77
2023-02-09T00:13:11.095Z,25.39
2023-02-09T00:15:42.520Z,25.74
2023-02-09T00:18:13.620Z,24.88
2023-02-09T00:20:44.967Z,24.49
2023-02-09T00:23:16.337Z,26.02
2023-02-09T00:25:47.559Z,26.06
2023-02-09T00:28:18.530Z,25.25
2023-02-09T00:30:49.917Z,25.95
2023-02-09T00:33:21.515Z,25.82
2023-02-09T00:35:53.135Z,25.90
2023-02-09T00:38:25.517Z,26.24
2023-02-09T00:40:56.593Z,26.25
2023-02-09T00:43:27.569Z,25.43
2023-02-09T00:45:58.902Z,25.35
2023-02-09T00:48:30.640Z,25.97
2023-02-09T00:51:01.958Z,25.03
2023-02-09T00:53:33.391Z,24.62
2023-02-09T00:56:04.509Z,24.19
2023-02-09T00:58:35.842Z,24.46
2023-02-09T01:01:06.960Z,24.74
2023-02-09T01:03:38.272Z,24.14
2023-02-09T01:06:09.431Z,25.19
2023-02-09T01:08:40.814Z,25.26
2023-02-09T01:11:13.457Z,24.86
2023-02-09T01:13:46.307Z,24.49
2023-02-09T01:16:20.296Z,23.74
2023-02-09T01:18:51.777Z,23.76
2023-02-09T01:21:24.510Z,24.09
2023-02-09T01:23:55.566Z,24.30
2023-02-09T01:26:26.837Z,24.07
2023-02-09T01:28:58.035Z,24.23
2023-02-09T01:31:30.273Z,25.10
2023-02-09T01:34:03.901Z,24.39
2023-02-09T01:36:35.734Z,23.49
2023-02-09T01:39:07.276Z,23.71
2023-02-09T01:41:37.729Z,24.59
2023-02-09T01:44:14.779Z,25.49
2023-02-09T01:46:46.579Z,25.98
2023-02-09T01:49:21.005Z,25.03
2023-02-09T01:51:55.306Z,24.49
2023-02-09T01:54:40.598Z,24.57
2023-02-09T01:57:14.647Z,24.41
2023-02-09T01:59:50.488Z,24.73
2023-02-09T02:02:22.460Z,24.92
2023-02-09T02:04:54.223Z,25.16
2023-02-09T02:07:40.661Z,25.00
2023-02-09T02:10:12.565Z,23.90
2023-02-09T02:12:45.598Z,24.06
2023-02-09T02:15:17.161Z,23.62
2023-02-09T02:18:23.608Z,23.26
2023-02-09T02:21:30.632Z,23.40
2023-02-09T02:24:02.128Z,23.44
2023-02-09T02:26:42.390Z,23.57
2023-02-09T02:29:27.802Z,24.15
2023-02-09T02:32:11.484Z,24.16
2023-02-09T02:34:57.805Z,24.29
2023-02-09T02:37:41.273Z,24.42
2023-02-09T02:40:29.131Z,25.61
2023-02-09T02:43:22.979Z,25.67
2023-02-09T02:46:23.293Z,25.42
2023-02-09T02:48:58.723Z,24.33
2023-02-09T02:51:49.892Z,23.88
2023-02-09T02:54:29.915Z,23.75
2023-02-09T02:57:06.234Z,23.73
2023-02-09T02:59:41.149Z,23.66
2023-02-09T03:02:25.551Z,23.88
2023-02-09T03:04:58.911Z,23.20
2023-02-09T03:07:30.181Z,23.05
2023-02-09T03:10:03.052Z,23.50
2023-02-09T03:12:58.732Z,23.39
2023-02-09T03:15:32.877Z,23.73
2023-02-09T03:18:32.073Z,24.13
2023-02-09T03:21:21.493Z,25.32
2023-02-09T03:24:08.404Z,25.51
2023-02-09T03:26:47.921Z,24.10
2023-02-09T03:29:20.209Z,23.93
2023-02-09T03:31:51.985Z,23.75
2023-02-09T03:34:23.294Z,23.47
2023-02-09T03:36:54.689Z,23.57
2023-02-09T03:39:25.961Z,23.34
2023-02-09T03:41:57.044Z,22.99
2023-02-09T03:44:28.705Z,23.02
2023-02-09T03:47:02.260Z,23.81
2023-02-09T03:49:36.291Z,24.19
2023-02-09T03:52:10.217Z,24.67
2023-02-09T03:54:42.120Z,24.35
2023-02-09T03:57:14.140Z,24.92
2023-02-09T03:59:45.357Z,24.54
2023-02-09T04:02:16.486Z,24.43
2023-02-09T04:04:47.617Z,24.92
2023-02-09T04:07:19.150Z,24.51
2023-02-09T04:09:50.356Z,24.07
2023-02-09T04:12:21.550Z,24.40
2023-02-09T04:14:52.961Z,24.55
2023-02-09T04:17:23.952Z,24.15
2023-02-09T04:19:54.929Z,24.38
2023-02-09T04:22:26.044Z,24.03
2023-02-09T04:24:57.231Z,24.57
2023-02-09T04:27:29.826Z,24.67
2023-02-09T04:30:01.205Z,24.23
2023-02-09T04:32:33.935Z,24.70
2023-02-09T04:35:04.942Z,24.32
2023-02-09T04:37:35.967Z,24.41
2023-02-09T04:40:07.924Z,24.19
2023-02-09T04:42:39.006Z,24.21
2023-02-09T04:47:40.467Z,24.56
2023-02-09T04:50:11.770Z,23.80
2023-02-09T04:52:43.132Z,24.14
2023-02-09T04:55:14.544Z,23.91
2023-02-09T04:58:04.514Z,24.25
2023-02-09T05:00:35.848Z,23.74
2023-02-09T05:03:07.133Z,23.95
2023-02-09T05:05:42.264Z,23.41
2023-02-09T05:08:13.620Z,23.37
2023-02-09T05:10:45.000Z,23.89
2023-02-09T05:13:16.147Z,23.75
2023-02-09T05:15:47.218Z,23.72
2023-02-09T05:18:18.120Z,23.41
2023-02-09T05:20:50.044Z,23.48
2023-02-09T05:23:21.413Z,23.49
2023-02-09T05:25:52.885Z,23.39
2023-02-09T05:28:24.508Z,23.24
2023-02-09T05:30:56.246Z,22.94
2023-02-09T05:33:27.757Z,23.05
2023-02-09T05:35:58.327Z,23.23
2023-02-09T05:38:29.787Z,23.24
2023-02-09T05:41:05.039Z,23.07
2023-02-09T05:43:36.777Z,23.07
2023-02-09T05:46:08.636Z,22.70
2023-02-09T05:48:39.859Z,22.52
2023-02-09T05:51:11.028Z,22.61
2023-02-09T05:53:42.191Z,22.50
2023-02-09T05:56:13.468Z,22.57
2023-02-09T05:58:45.257Z,22.14
2023-02-09T06:01:16.493Z,22.07
2023-02-09T06:03:47.705Z,22.03
2023-02-09T06:06:18.815Z,21.95
2023-02-09T06:08:49.807Z,21.99
2023-02-09T06:11:20.808Z,22.05
2023-02-09T06:13:51.871Z,21.78
2023-02-09T06:16:23.097Z,21.65
2023-02-09T06:18:54.399Z,21.43
2023-02-09T06:21:27.401Z,21.49
2023-02-09T06:24:02.909Z,21.66
2023-02-09T06:26:35.346Z,21.17
2023-02-09T06:29:06.693Z,21.15
2023-02-09T06:31:38.157Z,21.06
2023-02-09T06:34:09.924Z,20.86
2023-02-09T06:36:41.415Z,20.86
2023-02-09T06:39:13.396Z,20.58
2023-02-09T06:41:44.779Z,20.60
2023-02-09T06:44:16.032Z,20.50
2023-02-09T06:46:47.513Z,20.49
2023-02-09T06:49:19.007Z,20.52
2023-02-09T06:51:50.840Z,20.58
2023-02-09T06:54:22.280Z,20.73
2023-02-09T06:56:55.007Z,20.80
2023-02-09T06:59:26.788Z,20.42
2023-02-09T07:01:58.110Z,20.30
2023-02-09T07:04:29.483Z,20.72
2023-02-09T07:07:00.487Z,20.48
2023-02-09T07:09:31.579Z,20.24
2023-02-09T07:12:05.618Z,20.00
2023-02-09T07:14:36.607Z,19.89
2023-02-09T07:17:07.749Z,19.78
2023-02-09T07:19:38.868Z,19.76
2023-02-09T07:22:10.244Z,19.90
2023-02-09T07:24:41.415Z,19.69
2023-02-09T07:27:12.437Z,19.72
2023-02-09T07:29:43.585Z,19.66
2023-02-09T07:32:15.123Z,19.44
2023-02-09T07:34:46.652Z,19.52
2023-02-09T07:37:17.927Z,19.41
2023-02-09T07:39:48.891Z,19.07
2023-02-09T07:42:20.785Z,19.28
2023-02-09T07:44:59.944Z,19.38
2023-02-09T07:47:33.384Z,19.21
2023-02-09T07:50:04.597Z,19.11
2023-02-09T07:52:35.761Z,19.25
2023-02-09T07:55:08.953Z,18.94
2023-02-09T07:57:40.168Z,18.94
2023-02-09T08:00:13.081Z,19.03
2023-02-09T08:02:48.671Z,18.97
2023-02-09T08:05:28.980Z,18.71
2023-02-09T08:08:00.264Z,18.89
2023-02-09T08:10:31.635Z,18.66
2023-02-09T08:13:03.986Z,18.75
2023-02-09T08:15:47.948Z,18.70
2023-02-09T08:18:25.656Z,18.84
2023-02-09T08:20:56.841Z,18.70
2023-02-09T08:23:32.050Z,18.50
2023-02-09T08:26:06.698Z,18.52
2023-02-09T08:28:44.312Z,18.46
2023-02-09T08:31:18.593Z,18.65
2023-02-09T08:33:51.251Z,18.68
2023-02-09T08:36:23.237Z,18.39
2023-02-09T08:38:54.781Z,18.31
2023-02-09T08:41:25.776Z,18.28
2023-02-09T08:43:57.089Z,18.31
2023-02-09T08:46:28.597Z,18.25
2023-02-09T08:48:59.878Z,18.19
2023-02-09T08:51:31.283Z,18.15
2023-02-09T08:54:02.504Z,18.28
2023-02-09T08:56:33.745Z,18.16
2023-02-09T08:59:05.274Z,18.05
2023-02-09T09:01:36.286Z,18.14
2023-02-09T09:04:08.116Z,18.10
2023-02-09T09:06:39.474Z,17.99
2023-02-09T09:09:10.693Z,18.13
2023-02-09T09:11:41.922Z,18.07
2023-02-09T09:14:12.861Z,18.05
2023-02-09T09:16:44.028Z,18.03
2023-02-09T09:19:15.781Z,17.94
2023-02-09T09:21:47.064Z,17.87
2023-02-09T09:24:18.248Z,17.88
2023-02-09T09:26:49.384Z,17.98
2023-02-09T09:29:20.981Z,17.95
2023-02-09T09:31:52.372Z,17.94
2023-02-09T09:34:23.207Z,17.87
2023-02-09T09:36:54.264Z,17.87
2023-02-09T09:39:27.060Z,17.73
2023-02-09T09:42:02.077Z,17.80
2023-02-09T09:44:44.744Z,17.75
2023-02-09T09:47:21.394Z,17.75
2023-02-09T09:49:52.562Z,17.78
2023-02-09T09:52:43.985Z,17.78
2023-02-09T09:55:23.923Z,17.70
2023-02-09T09:57:56.530Z,17.66
2023-02-09T10:00:40.701Z,17.60
2023-02-09T10:03:21.652Z,17.60
2023-02-09T10:05:58.245Z,17.69
2023-02-09T10:08:49.206Z,17.68
2023-02-09T10:11:26.051Z,17.54
2023-02-09T10:13:59.282Z,17.76
2023-02-09T10:16:39.568Z,17.74
2023-02-09T10:19:34.297Z,17.52
2023-02-09T10:22:15.232Z,17.23
2023-02-09T10:24:46.427Z,17.30
2023-02-09T10:27:30.056Z,17.40
2023-02-09T10:30:22.564Z,17.42
2023-02-09T10:32:54.041Z,17.40
2023-02-09T10:35:49.294Z,17.42
2023-02-09T10:38:22.888Z,17.41
2023-02-09T10:40:54.240Z,17.27
2023-02-09T10:43:34.858Z,17.19
2023-02-09T10:46:14.470Z,17.18
2023-02-09T10:48:47.859Z,17.07
2023-02-09T10:51:31.460Z,17.28
2023-02-09T10:54:06.074Z,17.14
2023-02-09T10:56:48.778Z,17.09
2023-02-09T10:59:25.202Z,17.14
2023-02-09T11:02:04.206Z,17.06
2023-02-09T11:04:43.001Z,17.02
2023-02-09T11:07:18.608Z,16.84
2023-02-09T11:09:54.530Z,16.97
2023-02-09T11:12:29.258Z,16.76
2023-02-09T11:15:00.343Z,16.42
2023-02-09T11:17:38.853Z,16.66
2023-02-09T11:20:38.677Z,16.72
2023-02-09T11:23:24.627Z,16.56
2023-02-09T11:25:57.226Z,16.71
2023-02-09T11:28:31.011Z,16.79
2023-02-09T11:31:22.046Z,16.86
2023-02-09T11:34:22.922Z,16.71
2023-02-09T11:37:24.850Z,16.79
2023-02-09T11:40:32.217Z,16.63
2023-02-09T11:43:30.830Z,16.59
2023-02-09T11:46:21.888Z,16.73
2023-02-09T11:49:06.883Z,16.80
2023-02-09T11:51:40.998Z,16.73
2023-02-09T11:54:27.406Z,16.49
2023-02-09T11:57:09.669Z,16.74
2023-02-09T11:59:45.985Z,16.78
2023-02-09T12:02:23.721Z,16.63
2023-02-09T12:05:03.151Z,16.75
2023-02-09T12:07:37.404Z,16.82
2023-02-09T12:10:29.728Z,16.72
2023-02-09T12:13:24.950Z,16.71
2023-02-09T12:16:03.116Z,16.68
2023-02-09T12:18:35.893Z,16.74
2023-02-09T12:21:08.473Z,16.81
2023-02-09T12:23:43.268Z,16.90
2023-02-09T12:26:14.572Z,16.98
2023-02-09T12:29:05.886Z,17.04
2023-02-09T12:32:05.629Z,16.81
2023-02-09T12:34:51.053Z,16.74
2023-02-09T12:37:30.390Z,16.83
2023-02-09T12:40:19.775Z,16.70
2023-02-09T12:42:55.568Z,16.68
2023-02-09T12:45:38.829Z,16.60
2023-02-09T12:48:16.113Z,16.53
2023-02-09T12:50:48.445Z,16.44
2023-02-09T12:53:25.999Z,16.48
2023-02-09T12:56:07.352Z,16.46
2023-02-09T12:59:04.432Z,16.06
2023-02-09T13:02:09.218Z,16.31
2023-02-09T13:05:00.283Z,16.05
2023-02-09T13:07:55.110Z,15.98
2023-02-09T13:10:38.319Z,16.01
2023-02-09T13:13:37.272Z,15.90
2023-02-09T13:16:35.791Z,15.76
2023-02-09T13:19:48.049Z,15.84
2023-02-09T13:22:32.678Z,15.76
2023-02-09T13:25:11.631Z,15.85
2023-02-09T13:27:49.301Z,15.77
2023-02-09T13:30:34.415Z,15.77
2023-02-09T13:33:23.732Z,15.73
2023-02-09T13:35:55.009Z,15.76
2023-02-09T13:38:30.904Z,15.53
2023-02-09T13:41:04.871Z,15.55
2023-02-09T13:43:39.741Z,15.74
2023-02-09T13:46:29.880Z,15.88
2023-02-09T13:49:21.448Z,15.89
2023-02-09T13:52:11.460Z,15.70
2023-02-09T13:54:43.382Z,15.63
2023-02-09T13:57:37.772Z,15.82
2023-02-09T14:00:28.341Z,15.79
2023-02-09T14:03:06.233Z,15.58
2023-02-09T14:05:48.982Z,15.62
2023-02-09T14:08:21.674Z,15.60
2023-02-09T14:11:02.321Z,15.47
2023-02-09T14:13:38.762Z,15.67
2023-02-09T14:16:10.537Z,15.57
2023-02-09T14:18:57.152Z,15.55
2023-02-09T14:21:32.497Z,15.45
2023-02-09T14:24:20.167Z,15.60
2023-02-09T14:27:08.491Z,15.40
2023-02-09T14:29:40.526Z,15.32
2023-02-09T14:32:32.314Z,15.36
2023-02-09T14:35:34.946Z,15.55
2023-02-09T14:38:06.206Z,15.66
2023-02-09T14:40:38.789Z,15.29
2023-02-09T14:43:12.706Z,15.51
2023-02-09T14:45:49.485Z,15.38
2023-02-09T14:48:28.783Z,15.52
2023-02-09T14:51:28.905Z,15.15
2023-02-09T14:53:59.928Z,15.26
2023-02-09T14:56:36.635Z,15.37
2023-02-09T14:59:10.926Z,15.24
2023-02-09T15:01:42.216Z,15.18
2023-02-09T15:04:16.805Z,15.28
2023-02-09T15:06:50.656Z,14.96
2023-02-09T15:09:33.963Z,15.10
2023-02-09T15:12:06.574Z,15.11
2023-02-09T15:14:48.421Z,14.91
2023-02-09T15:17:22.518Z,14.93
2023-02-09T15:19:54.205Z,15.02
2023-02-09T15:22:26.132Z,14.73
2023-02-09T15:24:57.366Z,15.08
2023-02-09T15:27:35.612Z,15.06
2023-02-09T15:30:19.545Z,14.97
2023-02-09T15:32:51.265Z,15.05
2023-02-09T15:35:22.974Z,15.10
2023-02-09T15:38:03.952Z,14.96
2023-02-09T15:41:05.685Z,15.03
2023-02-09T15:43:55.124Z,14.94
2023-02-09T15:46:44.426Z,14.73
2023-02-09T15:49:15.683Z,14.92
2023-02-09T15:51:46.902Z,14.85
2023-02-09T15:54:21.437Z,14.77
2023-02-09T15:56:52.888Z,14.91
2023-02-09T15:59:25.783Z,15.06
2023-02-09T16:02:00.447Z,15.06
2023-02-09T16:04:31.808Z,14.89
2023-02-09T16:07:02.897Z,14.93
2023-02-09T16:09:36.108Z,14.97
2023-02-09T16:12:11.422Z,14.81
2023-02-09T16:14:42.379Z,14.89
2023-02-09T16:17:13.646Z,14.75
2023-02-09T16:19:47.333Z,14.82
2023-02-09T16:22:18.867Z,14.66
2023-02-09T16:24:50.848Z,14.75
2023-02-09T16:27:29.739Z,14.79
2023-02-09T16:30:01.527Z,14.62
2023-02-09T16:32:33.018Z,14.68
2023-02-09T16:35:16.335Z,14.64
2023-02-09T16:37:50.220Z,14.73
2023-02-09T16:40:24.187Z,14.75
2023-02-09T16:42:56.110Z,14.61
2023-02-09T16:45:28.138Z,14.82
2023-02-09T16:48:01.147Z,14.84
2023-02-09T16:50:39.429Z,14.72
2023-02-09T16:53:42.174Z,14.63
2023-02-09T16:56:16.975Z,14.42
2023-02-09T16:58:49.017Z,14.47
2023-02-09T17:01:20.707Z,14.52
2023-02-09T17:03:54.107Z,14.54
2023-02-09T17:06:27.334Z,14.56
2023-02-09T17:09:00.163Z,14.54
2023-02-09T17:11:32.060Z,14.24
2023-02-09T17:14:03.297Z,14.15
2023-02-09T17:16:36.966Z,14.27
2023-02-09T17:19:13.403Z,14.20
2023-02-09T17:21:45.014Z,14.15
2023-02-09T17:24:17.775Z,14.13
2023-02-09T17:26:49.928Z,14.01
2023-02-09T17:29:23.449Z,14.14
2023-02-09T17:31:54.611Z,14.14
2023-02-09T17:34:28.478Z,14.22
2023-02-09T17:37:00.388Z,13.98
2023-02-09T17:39:30.961Z,13.99
2023-02-09T17:42:02.836Z,14.04
2023-02-09T17:44:45.707Z,14.12
2023-02-09T17:47:22.075Z,13.79
2023-02-09T17:49:53.452Z,14.05
2023-02-09T17:52:24.383Z,14.08
2023-02-09T17:54:55.899Z,13.97
2023-02-09T17:57:28.976Z,14.09
2023-02-09T18:00:00.530Z,14.03
2023-02-09T18:02:34.892Z,13.99
2023-02-09T18:05:05.893Z,14.15
2023-02-09T18:07:36.536Z,14.24
2023-02-09T18:10:08.457Z,14.33
2023-02-09T18:12:40.477Z,14.34
2023-02-09T18:15:35.007Z,14.33
2023-02-09T18:18:06.597Z,14.62
2023-02-09T18:20:38.741Z,14.74
2023-02-09T18:23:10.438Z,14.86
2023-02-09T18:25:41.877Z,14.77
2023-02-09T18:28:13.097Z,15.10
2023-02-09T18:30:45.419Z,15.24
2023-02-09T18:33:17.998Z,15.20
2023-02-09T18:35:49.470Z,15.17
2023-02-09T18:38:31.585Z,15.43
2023-02-09T18:41:06.374Z,15.62
2023-02-09T18:43:37.605Z,15.69
2023-02-09T18:46:20.975Z,16.06
2023-02-09T18:48:55.877Z,16.38
2023-02-09T18:51:27.611Z,16.16
2023-02-09T18:53:59.540Z,16.01
2023-02-09T18:56:31.075Z,16.37
2023-02-09T18:59:02.223Z,16.13
2023-02-09T19:01:33.636Z,16.32
2023-02-09T19:04:05.232Z,16.40
2023-02-09T19:06:36.966Z,16.62
2023-02-09T19:09:08.142Z,16.74
2023-02-09T19:11:39.214Z,16.87
2023-02-09T19:14:29.174Z,16.98
2023-02-09T19:17:00.728Z,17.14
2023-02-09T19:19:32.013Z,17.10
2023-02-09T19:22:03.565Z,17.16
2023-02-09T19:24:34.492Z,17.79
2023-02-09T19:27:08.181Z,17.61
2023-02-09T19:29:49.898Z,17.35
2023-02-09T19:32:37.636Z,17.05
2023-02-09T19:35:09.095Z,17.71
2023-02-09T19:41:08.611Z,17.33
2023-02-09T19:43:44.193Z,17.08
2023-02-09T19:46:23.124Z,17.34
2023-02-09T19:48:59.022Z,17.33
2023-02-09T19:51:30.268Z,17.08
2023-02-09T19:54:01.670Z,17.36
2023-02-09T19:56:33.042Z,17.83
2023-02-09T19:59:05.362Z,17.95
2023-02-09T20:01:36.995Z,17.89
2023-02-09T20:04:09.023Z,17.66
2023-02-09T20:06:44.199Z,17.68
2023-02-09T20:09:23.479Z,17.88
2023-02-09T20:14:33.465Z,18.60
2023-02-09T20:17:05.187Z,19.29
2023-02-09T20:19:38.648Z,19.63
2023-02-09T20:22:10.094Z,20.05
2023-02-09T20:24:41.808Z,20.63
2023-02-09T20:27:13.319Z,20.99
2023-02-09T20:29:44.816Z,21.24
2023-02-09T20:32:16.108Z,21.55
2023-02-09T20:34:47.566Z,21.41
2023-02-09T20:37:21.353Z,21.90
2023-02-09T20:39:53.477Z,22.01
2023-02-09T20:42:42.890Z,22.31
2023-02-09T20:45:36.253Z,22.45
2023-02-09T20:48:07.618Z,23.28
2023-02-09T20:50:38.706Z,23.36
2023-02-09T20:53:09.782Z,23.37
2023-02-09T20:55:41.003Z,23.46
2023-02-09T20:58:14.807Z,23.60
2023-02-09T21:00:46.101Z,23.69
2023-02-09T21:03:16.882Z,23.88
2023-02-09T21:05:48.148Z,24.51
2023-02-09T21:08:19.383Z,24.18
2023-02-09T21:11:00.421Z,24.41
2023-02-09T21:13:31.508Z,24.94
2023-02-09T21:16:04.183Z,24.20
2023-02-09T21:18:35.927Z,24.89
2023-02-09T21:21:09.661Z,24.41
2023-02-09T21:23:41.098Z,24.63
2023-02-09T21:26:14.607Z,24.75
2023-02-09T21:28:46.769Z,25.10
2023-02-09T21:31:23.986Z,24.77
2023-02-09T21:33:55.012Z,24.59
2023-02-09T21:36:26.110Z,25.05
2023-02-09T21:38:57.269Z,25.07
2023-02-09T21:41:47.066Z,25.07
2023-02-09T21:44:18.235Z,25.39
2023-02-09T21:46:51.048Z,26.17
2023-02-09T21:49:22.345Z,25.84
2023-02-09T21:51:53.535Z,26.31
2023-02-09T21:54:28.009Z,25.38
2023-02-09T21:56:59.127Z,26.44
2023-02-09T21:59:30.697Z,26.42
2023-02-09T22:02:01.090Z,25.32
2023-02-09T22:04:32.401Z,24.76
2023-02-09T22:07:03.417Z,26.01
2023-02-09T22:09:34.483Z,24.97
2023-02-09T22:12:06.314Z,25.73
2023-02-09T22:14:37.572Z,26.12
2023-02-09T22:17:09.194Z,25.84
2023-02-09T22:19:40.596Z,25.39
2023-02-09T22:22:12.616Z,27.22
2023-02-09T22:24:43.877Z,26.13
2023-02-09T22:27:14.955Z,25.90
2023-02-09T22:29:47.701Z,25.66
2023-02-09T22:32:19.107Z,26.98
2023-02-09T22:34:50.142Z,26.57
2023-02-09T22:37:21.433Z,27.57
2023-02-09T22:39:52.353Z,25.92
2023-02-09T22:42:23.316Z,24.90
2023-02-09T22:47:25.811Z,26.45
2023-02-09T22:49:57.116Z,26.97
2023-02-09T22:52:28.516Z,26.61
2023-02-09T22:55:00.688Z,26.70
2023-02-09T22:57:33.290Z,26.24
2023-02-09T23:00:04.373Z,26.76
2023-02-09T23:02:35.525Z,26.11
2023-02-09T23:05:06.896Z,27.16
2023-02-09T23:07:38.254Z,26.12
2023-02-09T23:10:09.268Z,26.73
2023-02-09T23:12:40.516Z,27.24
2023-02-09T23:15:11.873Z,28.20
2023-02-09T23:17:43.374Z,29.00
2023-02-09T23:20:14.483Z,28.63
2023-02-09T23:22:45.100Z,26.35
2023-02-09T23:25:16.671Z,26.51
2023-02-09T23:27:47.771Z,28.37
2023-02-09T23:30:19.459Z,28.34
2023-02-09T23:32:50.714Z,27.10
2023-02-09T23:35:23.489Z,26.41
2023-02-09T23:37:55.152Z,26.91
2023-02-09T23:40:29.759Z,26.68
2023-02-09T23:43:00.990Z,27.44
2023-02-09T23:45:32.133Z,28.02
2023-02-09T23:48:03.144Z,27.95
2023-02-09T23:50:34.471Z,26.04
2023-02-09T23:53:05.757Z,25.33
2023-02-09T23:55:37.708Z,26.60
2023-02-09T23:58:08.015Z,26.87
